sensor_id;sensor_type;location;lat;lon;timestamp;temperature;humidity
53904;DHT22;39812;52.430;16.936;2023-08-30T00:01:17;15.50;99.90
53904;DHT22;39812;52.430;16.936;2023-08-30T00:03:46;15.40;99.90
53904;DHT22;39812;52.430;16.936;2023-08-30T00:06:22;15.40;99.90
53904;DHT22;39812;52.430;16.936;2023-08-30T00:08:47;15.40;99.90
53904;DHT22;39812;52.430;16.936;2023-08-30T00:11:14;15.30;99.90
53904;DHT22;39812;52.430;16.936;2023-08-30T00:13:39;15.30;99.90
53904;DHT22;39812;52.430;16.936;2023-08-30T00:16:06;15.30;99.90
53904;DHT22;39812;52.430;16.936;2023-08-30T00:18:32;15.40;99.90
53904;DHT22;39812;52.430;16.936;2023-08-30T00:20:58;15.30;99.90
53904;DHT22;39812;52.430;16.936;2023-08-30T00:23:24;15.30;99.90
53904;DHT22;39812;52.430;16.936;2023-08-30T00:25:49;15.30;99.90
53904;DHT22;39812;52.430;16.936;2023-08-30T00:28:15;15.30;99.90
53904;DHT22;39812;52.430;16.936;2023-08-30T00:30:41;15.30;99.90
53904;DHT22;39812;52.430;16.936;2023-08-30T00:33:06;15.30;99.90
53904;DHT22;39812;52.430;16.936;2023-08-30T00:35:32;15.20;99.90
53904;DHT22;39812;52.430;16.936;2023-08-30T00:37:58;15.20;99.90
53904;DHT22;39812;52.430;16.936;2023-08-30T00:40:24;15.20;99.90
53904;DHT22;39812;52.430;16.936;2023-08-30T00:42:52;15.20;99.90
53904;DHT22;39812;52.430;16.936;2023-08-30T00:45:18;15.20;99.90
53904;DHT22;39812;52.430;16.936;2023-08-30T00:47:44;15.10;99.90
53904;DHT22;39812;52.430;16.936;2023-08-30T00:50:10;15.10;99.90
53904;DHT22;39812;52.430;16.936;2023-08-30T00:52:35;15.10;99.90
53904;DHT22;39812;52.430;16.936;2023-08-30T00:55:01;15.10;99.90
53904;DHT22;39812;52.430;16.936;2023-08-30T00:57:27;15.00;99.90
53904;DHT22;39812;52.430;16.936;2023-08-30T00:59:54;15.00;99.90
53904;DHT22;39812;52.430;16.936;2023-08-30T01:02:20;15.10;99.90
53904;DHT22;39812;52.430;16.936;2023-08-30T01:04:47;15.10;99.90
53904;DHT22;39812;52.430;16.936;2023-08-30T01:07:13;15.10;99.90
53904;DHT22;39812;52.430;16.936;2023-08-30T01:09:38;15.10;99.90
53904;DHT22;39812;52.430;16.936;2023-08-30T01:12:09;15.10;99.90
53904;DHT22;39812;52.430;16.936;2023-08-30T01:17:04;15.10;99.90
53904;DHT22;39812;52.430;16.936;2023-08-30T01:25:15;15.10;99.90
53904;DHT22;39812;52.430;16.936;2023-08-30T01:27:42;15.10;99.90
53904;DHT22;39812;52.430;16.936;2023-08-30T01:30:10;15.10;99.90
53904;DHT22;39812;52.430;16.936;2023-08-30T01:32:37;15.10;99.90
53904;DHT22;39812;52.430;16.936;2023-08-30T01:35:05;15.10;99.90
53904;DHT22;39812;52.430;16.936;2023-08-30T01:37:32;15.10;99.90
53904;DHT22;39812;52.430;16.936;2023-08-30T01:39:59;15.10;99.90
53904;DHT22;39812;52.430;16.936;2023-08-30T01:42:25;15.10;99.90
53904;DHT22;39812;52.430;16.936;2023-08-30T01:44:53;15.10;99.90
53904;DHT22;39812;52.430;16.936;2023-08-30T01:47:24;15.10;99.90
53904;DHT22;39812;52.430;16.936;2023-08-30T01:49:51;15.20;99.90
53904;DHT22;39812;52.430;16.936;2023-08-30T01:52:17;15.10;99.90
53904;DHT22;39812;52.430;16.936;2023-08-30T01:54:44;15.10;99.90
53904;DHT22;39812;52.430;16.936;2023-08-30T01:57:11;15.10;99.90
53904;DHT22;39812;52.430;16.936;2023-08-30T01:59:36;15.00;99.90
53904;DHT22;39812;52.430;16.936;2023-08-30T02:02:02;15.10;99.90
53904;DHT22;39812;52.430;16.936;2023-08-30T02:04:29;15.00;99.90
53904;DHT22;39812;52.430;16.936;2023-08-30T02:07:13;15.00;99.90
53904;DHT22;39812;52.430;16.936;2023-08-30T02:10:00;15.00;99.90
53904;DHT22;39812;52.430;16.936;2023-08-30T02:12:39;14.90;99.90
53904;DHT22;39812;52.430;16.936;2023-08-30T02:15:08;14.90;99.90
53904;DHT22;39812;52.430;16.936;2023-08-30T02:17:36;14.90;99.90
53904;DHT22;39812;52.430;16.936;2023-08-30T02:20:03;15.00;99.90
53904;DHT22;39812;52.430;16.936;2023-08-30T02:22:31;14.90;99.90
53904;DHT22;39812;52.430;16.936;2023-08-30T02:24:57;15.00;99.90
53904;DHT22;39812;52.430;16.936;2023-08-30T02:27:23;14.90;99.90
53904;DHT22;39812;52.430;16.936;2023-08-30T02:29:49;15.00;99.90
53904;DHT22;39812;52.430;16.936;2023-08-30T02:32:14;15.00;99.90
53904;DHT22;39812;52.430;16.936;2023-08-30T02:34:47;15.00;99.90
53904;DHT22;39812;52.430;16.936;2023-08-30T02:37:13;15.00;99.90
53904;DHT22;39812;52.430;16.936;2023-08-30T02:39:39;15.00;99.90
53904;DHT22;39812;52.430;16.936;2023-08-30T02:42:04;15.00;99.90
53904;DHT22;39812;52.430;16.936;2023-08-30T02:44:30;14.90;99.90
53904;DHT22;39812;52.430;16.936;2023-08-30T02:46:55;14.90;99.90
53904;DHT22;39812;52.430;16.936;2023-08-30T02:49:21;14.90;99.90
53904;DHT22;39812;52.430;16.936;2023-08-30T02:51:46;14.90;99.90
53904;DHT22;39812;52.430;16.936;2023-08-30T02:54:13;14.90;99.90
53904;DHT22;39812;52.430;16.936;2023-08-30T02:56:39;14.90;99.90
53904;DHT22;39812;52.430;16.936;2023-08-30T02:59:05;14.80;99.90
53904;DHT22;39812;52.430;16.936;2023-08-30T03:01:31;14.80;99.90
53904;DHT22;39812;52.430;16.936;2023-08-30T03:03:56;14.80;99.90
53904;DHT22;39812;52.430;16.936;2023-08-30T03:06:22;14.80;99.90
53904;DHT22;39812;52.430;16.936;2023-08-30T03:08:47;14.80;99.90
53904;DHT22;39812;52.430;16.936;2023-08-30T03:11:14;14.90;99.90
53904;DHT22;39812;52.430;16.936;2023-08-30T03:13:39;14.90;99.90
53904;DHT22;39812;52.430;16.936;2023-08-30T03:16:12;14.90;99.90
53904;DHT22;39812;52.430;16.936;2023-08-30T03:18:38;14.90;99.90
53904;DHT22;39812;52.430;16.936;2023-08-30T03:21:04;14.90;99.90
53904;DHT22;39812;52.430;16.936;2023-08-30T03:23:33;14.90;99.90
53904;DHT22;39812;52.430;16.936;2023-08-30T03:25:59;14.80;99.90
53904;DHT22;39812;52.430;16.936;2023-08-30T03:28:25;14.80;99.90
53904;DHT22;39812;52.430;16.936;2023-08-30T03:30:52;14.80;99.90
53904;DHT22;39812;52.430;16.936;2023-08-30T03:33:18;14.80;99.90
53904;DHT22;39812;52.430;16.936;2023-08-30T03:35:44;14.80;99.90
53904;DHT22;39812;52.430;16.936;2023-08-30T03:38:09;14.80;99.90
53904;DHT22;39812;52.430;16.936;2023-08-30T03:40:35;14.80;99.90
53904;DHT22;39812;52.430;16.936;2023-08-30T03:43:00;14.70;99.90
53904;DHT22;39812;52.430;16.936;2023-08-30T03:45:26;14.70;99.90
53904;DHT22;39812;52.430;16.936;2023-08-30T03:47:52;14.70;99.90
53904;DHT22;39812;52.430;16.936;2023-08-30T03:50:17;14.80;99.90
53904;DHT22;39812;52.430;16.936;2023-08-30T03:52:43;14.80;99.90
53904;DHT22;39812;52.430;16.936;2023-08-30T03:55:08;14.80;99.90
53904;DHT22;39812;52.430;16.936;2023-08-30T03:57:34;14.80;99.90
53904;DHT22;39812;52.430;16.936;2023-08-30T04:00:00;14.80;99.90
53904;DHT22;39812;52.430;16.936;2023-08-30T04:02:25;14.70;99.90
53904;DHT22;39812;52.430;16.936;2023-08-30T04:04:51;14.70;99.90
53904;DHT22;39812;52.430;16.936;2023-08-30T04:07:16;14.80;99.90
53904;DHT22;39812;52.430;16.936;2023-08-30T04:09:42;14.80;99.90
53904;DHT22;39812;52.430;16.936;2023-08-30T04:12:08;14.80;99.90
53904;DHT22;39812;52.430;16.936;2023-08-30T04:14:33;14.80;99.90
53904;DHT22;39812;52.430;16.936;2023-08-30T04:16:59;14.90;99.90
53904;DHT22;39812;52.430;16.936;2023-08-30T04:19:25;14.90;99.90
53904;DHT22;39812;52.430;16.936;2023-08-30T04:21:50;14.90;99.90
53904;DHT22;39812;52.430;16.936;2023-08-30T04:24:16;14.90;99.90
53904;DHT22;39812;52.430;16.936;2023-08-30T04:26:41;14.90;99.90
53904;DHT22;39812;52.430;16.936;2023-08-30T04:29:08;15.00;99.90
53904;DHT22;39812;52.430;16.936;2023-08-30T04:31:34;15.00;99.90
53904;DHT22;39812;52.430;16.936;2023-08-30T04:34:00;15.00;99.90
53904;DHT22;39812;52.430;16.936;2023-08-30T04:36:25;15.00;99.90
53904;DHT22;39812;52.430;16.936;2023-08-30T04:38:51;15.10;99.90
53904;DHT22;39812;52.430;16.936;2023-08-30T04:41:16;15.00;99.90
53904;DHT22;39812;52.430;16.936;2023-08-30T04:43:42;15.00;99.90
53904;DHT22;39812;52.430;16.936;2023-08-30T04:46:08;14.90;99.90
53904;DHT22;39812;52.430;16.936;2023-08-30T04:48:34;14.90;99.90
53904;DHT22;39812;52.430;16.936;2023-08-30T04:51:05;14.90;99.90
53904;DHT22;39812;52.430;16.936;2023-08-30T04:53:30;14.90;99.90
53904;DHT22;39812;52.430;16.936;2023-08-30T04:55:56;14.80;99.90
53904;DHT22;39812;52.430;16.936;2023-08-30T04:58:22;14.80;99.90
53904;DHT22;39812;52.430;16.936;2023-08-30T05:00:47;14.80;99.90
53904;DHT22;39812;52.430;16.936;2023-08-30T05:03:13;14.80;99.90
53904;DHT22;39812;52.430;16.936;2023-08-30T05:05:39;14.70;99.90
53904;DHT22;39812;52.430;16.936;2023-08-30T05:08:05;14.70;99.90
53904;DHT22;39812;52.430;16.936;2023-08-30T05:10:30;14.70;99.90
53904;DHT22;39812;52.430;16.936;2023-08-30T05:12:57;14.70;99.90
53904;DHT22;39812;52.430;16.936;2023-08-30T05:15:23;14.70;99.90
53904;DHT22;39812;52.430;16.936;2023-08-30T05:17:48;14.70;99.90
53904;DHT22;39812;52.430;16.936;2023-08-30T05:20:14;14.80;99.90
53904;DHT22;39812;52.430;16.936;2023-08-30T05:22:39;14.80;99.90
53904;DHT22;39812;52.430;16.936;2023-08-30T05:25:05;14.80;99.90
53904;DHT22;39812;52.430;16.936;2023-08-30T05:27:31;14.80;99.90
53904;DHT22;39812;52.430;16.936;2023-08-30T05:29:56;14.80;99.90
53904;DHT22;39812;52.430;16.936;2023-08-30T05:32:22;14.80;99.90
53904;DHT22;39812;52.430;16.936;2023-08-30T05:34:48;14.80;99.90
53904;DHT22;39812;52.430;16.936;2023-08-30T05:37:13;14.80;99.90
53904;DHT22;39812;52.430;16.936;2023-08-30T05:39:39;14.90;99.90
53904;DHT22;39812;52.430;16.936;2023-08-30T05:42:05;14.90;99.90
53904;DHT22;39812;52.430;16.936;2023-08-30T05:44:30;15.00;99.90
53904;DHT22;39812;52.430;16.936;2023-08-30T05:46:56;15.00;99.90
53904;DHT22;39812;52.430;16.936;2023-08-30T05:49:22;15.00;99.90
53904;DHT22;39812;52.430;16.936;2023-08-30T05:51:47;15.10;99.90
53904;DHT22;39812;52.430;16.936;2023-08-30T05:54:13;15.10;99.90
53904;DHT22;39812;52.430;16.936;2023-08-30T05:56:39;15.00;99.90
53904;DHT22;39812;52.430;16.936;2023-08-30T05:59:05;15.00;99.90
53904;DHT22;39812;52.430;16.936;2023-08-30T06:01:30;15.20;99.90
53904;DHT22;39812;52.430;16.936;2023-08-30T06:03:56;15.30;99.90
53904;DHT22;39812;52.430;16.936;2023-08-30T06:06:22;15.30;99.90
53904;DHT22;39812;52.430;16.936;2023-08-30T06:08:47;15.30;99.90
53904;DHT22;39812;52.430;16.936;2023-08-30T06:11:13;15.30;99.90
53904;DHT22;39812;52.430;16.936;2023-08-30T06:13:40;15.40;99.90
53904;DHT22;39812;52.430;16.936;2023-08-30T06:16:06;15.40;99.90
53904;DHT22;39812;52.430;16.936;2023-08-30T06:18:32;15.40;99.90
53904;DHT22;39812;52.430;16.936;2023-08-30T06:20:58;15.40;99.90
53904;DHT22;39812;52.430;16.936;2023-08-30T06:23:23;15.40;99.90
53904;DHT22;39812;52.430;16.936;2023-08-30T06:25:56;15.40;99.90
53904;DHT22;39812;52.430;16.936;2023-08-30T06:28:22;15.50;99.90
53904;DHT22;39812;52.430;16.936;2023-08-30T06:30:48;15.50;99.90
53904;DHT22;39812;52.430;16.936;2023-08-30T06:33:14;15.40;99.90
53904;DHT22;39812;52.430;16.936;2023-08-30T06:35:40;15.30;99.90
53904;DHT22;39812;52.430;16.936;2023-08-30T06:38:06;15.50;99.90
53904;DHT22;39812;52.430;16.936;2023-08-30T06:40:32;15.50;99.90
53904;DHT22;39812;52.430;16.936;2023-08-30T06:42:58;15.60;99.90
53904;DHT22;39812;52.430;16.936;2023-08-30T06:45:24;15.50;99.90
53904;DHT22;39812;52.430;16.936;2023-08-30T06:47:50;15.50;99.90
53904;DHT22;39812;52.430;16.936;2023-08-30T06:50:18;15.40;99.90
53904;DHT22;39812;52.430;16.936;2023-08-30T06:52:43;15.50;99.90
53904;DHT22;39812;52.430;16.936;2023-08-30T06:55:09;15.40;99.90
53904;DHT22;39812;52.430;16.936;2023-08-30T06:57:35;15.40;99.90
53904;DHT22;39812;52.430;16.936;2023-08-30T07:00:00;15.60;99.90
53904;DHT22;39812;52.430;16.936;2023-08-30T07:02:33;15.60;99.90
53904;DHT22;39812;52.430;16.936;2023-08-30T07:04:59;15.70;99.90
53904;DHT22;39812;52.430;16.936;2023-08-30T07:07:25;15.70;99.90
53904;DHT22;39812;52.430;16.936;2023-08-30T07:09:51;15.70;99.90
53904;DHT22;39812;52.430;16.936;2023-08-30T07:12:16;15.80;99.90
53904;DHT22;39812;52.430;16.936;2023-08-30T07:14:42;15.90;99.90
53904;DHT22;39812;52.430;16.936;2023-08-30T07:17:07;16.10;99.90
53904;DHT22;39812;52.430;16.936;2023-08-30T07:19:33;16.20;99.90
53904;DHT22;39812;52.430;16.936;2023-08-30T07:21:59;16.20;99.90
53904;DHT22;39812;52.430;16.936;2023-08-30T07:24:24;16.30;99.90
53904;DHT22;39812;52.430;16.936;2023-08-30T07:26:50;16.30;99.90
53904;DHT22;39812;52.430;16.936;2023-08-30T07:29:16;16.40;99.90
53904;DHT22;39812;52.430;16.936;2023-08-30T07:31:41;16.30;99.90
53904;DHT22;39812;52.430;16.936;2023-08-30T07:34:07;16.40;99.90
53904;DHT22;39812;52.430;16.936;2023-08-30T07:36:33;16.50;99.90
53904;DHT22;39812;52.430;16.936;2023-08-30T07:38:59;16.60;99.90
53904;DHT22;39812;52.430;16.936;2023-08-30T07:41:25;16.40;99.90
53904;DHT22;39812;52.430;16.936;2023-08-30T07:43:50;16.40;99.90
53904;DHT22;39812;52.430;16.936;2023-08-30T07:46:16;16.30;99.90
53904;DHT22;39812;52.430;16.936;2023-08-30T07:48:41;16.30;99.90
53904;DHT22;39812;52.430;16.936;2023-08-30T07:51:07;16.50;99.90
53904;DHT22;39812;52.430;16.936;2023-08-30T07:53:32;16.70;99.90
53904;DHT22;39812;52.430;16.936;2023-08-30T07:55:58;16.70;99.90
53904;DHT22;39812;52.430;16.936;2023-08-30T07:58:24;16.60;99.90
53904;DHT22;39812;52.430;16.936;2023-08-30T08:00:53;16.50;99.90
53904;DHT22;39812;52.430;16.936;2023-08-30T08:03:21;16.50;99.90
53904;DHT22;39812;52.430;16.936;2023-08-30T08:05:47;16.50;99.90
53904;DHT22;39812;52.430;16.936;2023-08-30T08:08:13;16.70;99.90
53904;DHT22;39812;52.430;16.936;2023-08-30T08:10:40;16.50;99.90
53904;DHT22;39812;52.430;16.936;2023-08-30T08:13:07;16.30;99.90
53904;DHT22;39812;52.430;16.936;2023-08-30T08:15:32;16.30;99.90
53904;DHT22;39812;52.430;16.936;2023-08-30T08:17:59;16.40;99.90
53904;DHT22;39812;52.430;16.936;2023-08-30T08:20:25;16.30;99.90
53904;DHT22;39812;52.430;16.936;2023-08-30T08:22:51;16.20;99.90
53904;DHT22;39812;52.430;16.936;2023-08-30T08:25:17;16.20;99.90
53904;DHT22;39812;52.430;16.936;2023-08-30T08:27:43;16.10;99.90
53904;DHT22;39812;52.430;16.936;2023-08-30T08:30:09;16.00;99.90
53904;DHT22;39812;52.430;16.936;2023-08-30T08:32:35;15.90;99.90
53904;DHT22;39812;52.430;16.936;2023-08-30T08:35:01;15.80;99.90
53904;DHT22;39812;52.430;16.936;2023-08-30T08:37:27;15.90;99.90
53904;DHT22;39812;52.430;16.936;2023-08-30T08:39:53;16.20;99.90
53904;DHT22;39812;52.430;16.936;2023-08-30T08:42:19;16.10;99.90
53904;DHT22;39812;52.430;16.936;2023-08-30T08:44:51;16.00;99.90
53904;DHT22;39812;52.430;16.936;2023-08-30T08:47:17;16.00;99.90
53904;DHT22;39812;52.430;16.936;2023-08-30T08:49:44;16.10;99.90
53904;DHT22;39812;52.430;16.936;2023-08-30T08:52:10;16.20;99.90
53904;DHT22;39812;52.430;16.936;2023-08-30T08:54:39;16.50;99.90
53904;DHT22;39812;52.430;16.936;2023-08-30T08:57:05;16.60;99.90
53904;DHT22;39812;52.430;16.936;2023-08-30T08:59:31;16.70;99.90
53904;DHT22;39812;52.430;16.936;2023-08-30T09:01:57;16.90;99.90
53904;DHT22;39812;52.430;16.936;2023-08-30T09:04:24;17.10;99.90
53904;DHT22;39812;52.430;16.936;2023-08-30T09:06:50;17.30;99.90
53904;DHT22;39812;52.430;16.936;2023-08-30T09:09:16;17.20;99.90
53904;DHT22;39812;52.430;16.936;2023-08-30T09:11:41;17.00;99.90
53904;DHT22;39812;52.430;16.936;2023-08-30T09:14:08;16.60;99.90
53904;DHT22;39812;52.430;16.936;2023-08-30T09:16:34;16.70;99.90
53904;DHT22;39812;52.430;16.936;2023-08-30T09:19:01;16.70;99.90
53904;DHT22;39812;52.430;16.936;2023-08-30T09:21:28;16.70;99.90
53904;DHT22;39812;52.430;16.936;2023-08-30T09:24:05;16.40;99.90
53904;DHT22;39812;52.430;16.936;2023-08-30T09:26:32;16.40;99.90
53904;DHT22;39812;52.430;16.936;2023-08-30T09:29:08;16.30;99.90
53904;DHT22;39812;52.430;16.936;2023-08-30T09:31:34;16.30;99.90
53904;DHT22;39812;52.430;16.936;2023-08-30T09:34:01;16.20;99.90
53904;DHT22;39812;52.430;16.936;2023-08-30T09:37:00;16.30;99.90
53904;DHT22;39812;52.430;16.936;2023-08-30T09:39:19;16.30;99.90
53904;DHT22;39812;52.430;16.936;2023-08-30T09:41:47;16.30;99.90
53904;DHT22;39812;52.430;16.936;2023-08-30T09:44:14;16.40;99.90
53904;DHT22;39812;52.430;16.936;2023-08-30T09:46:45;16.30;99.90
53904;DHT22;39812;52.430;16.936;2023-08-30T09:49:11;16.30;99.90
53904;DHT22;39812;52.430;16.936;2023-08-30T09:51:39;16.40;99.90
53904;DHT22;39812;52.430;16.936;2023-08-30T09:54:21;16.50;99.90
53904;DHT22;39812;52.430;16.936;2023-08-30T09:56:47;16.90;99.90
53904;DHT22;39812;52.430;16.936;2023-08-30T09:59:14;16.80;99.90
53904;DHT22;39812;52.430;16.936;2023-08-30T10:01:42;16.90;99.90
53904;DHT22;39812;52.430;16.936;2023-08-30T10:04:08;17.20;99.90
53904;DHT22;39812;52.430;16.936;2023-08-30T10:06:38;17.30;99.90
53904;DHT22;39812;52.430;16.936;2023-08-30T10:09:04;17.00;99.90
53904;DHT22;39812;52.430;16.936;2023-08-30T10:11:33;17.30;99.90
53904;DHT22;39812;52.430;16.936;2023-08-30T10:14:00;17.50;99.90
53904;DHT22;39812;52.430;16.936;2023-08-30T10:16:27;17.80;99.90
53904;DHT22;39812;52.430;16.936;2023-08-30T10:19:01;18.10;99.90
53904;DHT22;39812;52.430;16.936;2023-08-30T10:21:29;17.90;99.90
53904;DHT22;39812;52.430;16.936;2023-08-30T10:23:56;18.20;99.90
53904;DHT22;39812;52.430;16.936;2023-08-30T10:26:27;18.30;99.90
53904;DHT22;39812;52.430;16.936;2023-08-30T10:28:55;18.00;99.90
53904;DHT22;39812;52.430;16.936;2023-08-30T10:31:22;17.70;99.90
53904;DHT22;39812;52.430;16.936;2023-08-30T10:33:53;17.40;99.90
53904;DHT22;39812;52.430;16.936;2023-08-30T10:36:23;17.40;99.90
53904;DHT22;39812;52.430;16.936;2023-08-30T10:38:50;17.00;99.90
53904;DHT22;39812;52.430;16.936;2023-08-30T10:41:26;16.70;99.90
53904;DHT22;39812;52.430;16.936;2023-08-30T10:43:54;16.70;99.90
53904;DHT22;39812;52.430;16.936;2023-08-30T10:46:34;16.60;99.90
53904;DHT22;39812;52.430;16.936;2023-08-30T10:49:11;16.50;99.90
53904;DHT22;39812;52.430;16.936;2023-08-30T10:51:39;16.30;99.90
53904;DHT22;39812;52.430;16.936;2023-08-30T10:54:12;16.20;99.90
53904;DHT22;39812;52.430;16.936;2023-08-30T10:59:20;16.20;99.90
53904;DHT22;39812;52.430;16.936;2023-08-30T11:01:47;16.60;99.90
53904;DHT22;39812;52.430;16.936;2023-08-30T11:04:15;16.50;99.90
53904;DHT22;39812;52.430;16.936;2023-08-30T11:06:45;16.40;99.90
53904;DHT22;39812;52.430;16.936;2023-08-30T11:09:16;16.60;99.90
53904;DHT22;39812;52.430;16.936;2023-08-30T11:11:46;16.50;99.90
53904;DHT22;39812;52.430;16.936;2023-08-30T11:14:11;16.20;99.90
53904;DHT22;39812;52.430;16.936;2023-08-30T11:16:38;16.30;99.90
53904;DHT22;39812;52.430;16.936;2023-08-30T11:19:04;16.20;99.90
53904;DHT22;39812;52.430;16.936;2023-08-30T11:21:32;16.10;99.90
53904;DHT22;39812;52.430;16.936;2023-08-30T11:23:58;16.20;99.90
53904;DHT22;39812;52.430;16.936;2023-08-30T11:26:23;16.10;99.90
53904;DHT22;39812;52.430;16.936;2023-08-30T11:28:49;16.00;99.90
53904;DHT22;39812;52.430;16.936;2023-08-30T11:31:21;16.10;99.90
53904;DHT22;39812;52.430;16.936;2023-08-30T11:33:56;16.30;99.90
53904;DHT22;39812;52.430;16.936;2023-08-30T11:36:29;16.10;99.90
53904;DHT22;39812;52.430;16.936;2023-08-30T11:38:55;16.00;99.90
53904;DHT22;39812;52.430;16.936;2023-08-30T11:41:21;15.90;99.90
53904;DHT22;39812;52.430;16.936;2023-08-30T11:43:47;15.90;99.90
53904;DHT22;39812;52.430;16.936;2023-08-30T11:46:13;15.80;99.90
53904;DHT22;39812;52.430;16.936;2023-08-30T11:48:40;16.10;99.90
53904;DHT22;39812;52.430;16.936;2023-08-30T11:51:07;16.10;99.90
53904;DHT22;39812;52.430;16.936;2023-08-30T11:53:36;16.10;99.90
53904;DHT22;39812;52.430;16.936;2023-08-30T11:56:02;16.30;99.90
53904;DHT22;39812;52.430;16.936;2023-08-30T11:58:32;16.40;99.90
53904;DHT22;39812;52.430;16.936;2023-08-30T12:00:58;16.50;99.90
53904;DHT22;39812;52.430;16.936;2023-08-30T12:03:26;16.90;99.90
53904;DHT22;39812;52.430;16.936;2023-08-30T12:05:52;17.30;99.90
53904;DHT22;39812;52.430;16.936;2023-08-30T12:08:24;17.80;99.90
53904;DHT22;39812;52.430;16.936;2023-08-30T12:10:49;17.60;99.90
53904;DHT22;39812;52.430;16.936;2023-08-30T12:13:35;17.40;99.90
53904;DHT22;39812;52.430;16.936;2023-08-30T12:16:02;17.30;99.90
53904;DHT22;39812;52.430;16.936;2023-08-30T12:18:32;17.50;99.90
53904;DHT22;39812;52.430;16.936;2023-08-30T12:21:03;17.50;99.90
53904;DHT22;39812;52.430;16.936;2023-08-30T12:23:30;17.50;99.90
53904;DHT22;39812;52.430;16.936;2023-08-30T12:26:07;17.50;99.90
53904;DHT22;39812;52.430;16.936;2023-08-30T12:28:35;17.10;99.90
53904;DHT22;39812;52.430;16.936;2023-08-30T12:31:01;16.80;99.90
53904;DHT22;39812;52.430;16.936;2023-08-30T12:33:27;16.40;99.90
53904;DHT22;39812;52.430;16.936;2023-08-30T12:35:56;16.60;99.90
53904;DHT22;39812;52.430;16.936;2023-08-30T12:38:23;16.70;99.90
53904;DHT22;39812;52.430;16.936;2023-08-30T12:40:51;16.70;99.90
53904;DHT22;39812;52.430;16.936;2023-08-30T12:43:17;16.60;99.90
53904;DHT22;39812;52.430;16.936;2023-08-30T12:45:44;16.60;99.90
53904;DHT22;39812;52.430;16.936;2023-08-30T12:48:11;17.10;99.90
53904;DHT22;39812;52.430;16.936;2023-08-30T12:50:38;17.70;99.90
53904;DHT22;39812;52.430;16.936;2023-08-30T12:53:05;18.20;99.90
53904;DHT22;39812;52.430;16.936;2023-08-30T12:55:30;18.30;99.90
53904;DHT22;39812;52.430;16.936;2023-08-30T12:57:57;18.20;99.90
53904;DHT22;39812;52.430;16.936;2023-08-30T13:00:23;17.60;99.90
53904;DHT22;39812;52.430;16.936;2023-08-30T13:02:49;17.50;99.90
53904;DHT22;39812;52.430;16.936;2023-08-30T13:05:14;17.40;99.90
53904;DHT22;39812;52.430;16.936;2023-08-30T13:07:40;17.70;99.90
53904;DHT22;39812;52.430;16.936;2023-08-30T13:10:06;18.10;99.90
53904;DHT22;39812;52.430;16.936;2023-08-30T13:12:32;18.40;99.90
53904;DHT22;39812;52.430;16.936;2023-08-30T13:14:58;19.00;99.90
53904;DHT22;39812;52.430;16.936;2023-08-30T13:17:23;19.50;99.90
53904;DHT22;39812;52.430;16.936;2023-08-30T13:19:49;19.40;99.90
53904;DHT22;39812;52.430;16.936;2023-08-30T13:22:15;19.00;99.90
53904;DHT22;39812;52.430;16.936;2023-08-30T13:24:40;18.70;99.90
53904;DHT22;39812;52.430;16.936;2023-08-30T13:27:06;18.30;99.90
53904;DHT22;39812;52.430;16.936;2023-08-30T13:29:32;17.80;99.90
53904;DHT22;39812;52.430;16.936;2023-08-30T13:31:57;17.60;99.90
53904;DHT22;39812;52.430;16.936;2023-08-30T13:34:23;17.40;99.90
53904;DHT22;39812;52.430;16.936;2023-08-30T13:36:48;17.10;99.90
53904;DHT22;39812;52.430;16.936;2023-08-30T13:39:14;17.10;99.90
53904;DHT22;39812;52.430;16.936;2023-08-30T13:41:40;16.80;99.90
53904;DHT22;39812;52.430;16.936;2023-08-30T13:44:06;16.90;99.90
53904;DHT22;39812;52.430;16.936;2023-08-30T13:46:32;17.00;99.90
53904;DHT22;39812;52.430;16.936;2023-08-30T13:48:58;17.30;99.90
53904;DHT22;39812;52.430;16.936;2023-08-30T13:51:25;17.40;99.90
53904;DHT22;39812;52.430;16.936;2023-08-30T13:53:51;17.60;99.90
53904;DHT22;39812;52.430;16.936;2023-08-30T13:56:17;18.20;99.90
53904;DHT22;39812;52.430;16.936;2023-08-30T13:58:43;18.20;99.90
53904;DHT22;39812;52.430;16.936;2023-08-30T14:01:09;18.70;99.90
53904;DHT22;39812;52.430;16.936;2023-08-30T14:03:34;19.00;99.90
53904;DHT22;39812;52.430;16.936;2023-08-30T14:06:00;18.40;99.90
53904;DHT22;39812;52.430;16.936;2023-08-30T14:08:25;17.90;99.90
53904;DHT22;39812;52.430;16.936;2023-08-30T14:10:51;17.70;99.90
53904;DHT22;39812;52.430;16.936;2023-08-30T14:13:17;17.50;99.90
53904;DHT22;39812;52.430;16.936;2023-08-30T14:15:42;17.50;99.90
53904;DHT22;39812;52.430;16.936;2023-08-30T14:18:08;17.50;99.90
53904;DHT22;39812;52.430;16.936;2023-08-30T14:20:34;17.50;99.90
53904;DHT22;39812;52.430;16.936;2023-08-30T14:23:00;17.60;99.90
53904;DHT22;39812;52.430;16.936;2023-08-30T14:25:25;17.50;99.90
53904;DHT22;39812;52.430;16.936;2023-08-30T14:27:51;17.60;99.90
53904;DHT22;39812;52.430;16.936;2023-08-30T14:30:17;17.50;99.90
53904;DHT22;39812;52.430;16.936;2023-08-30T14:32:42;17.50;99.90
53904;DHT22;39812;52.430;16.936;2023-08-30T14:35:08;17.30;99.90
53904;DHT22;39812;52.430;16.936;2023-08-30T14:37:34;17.20;99.90
53904;DHT22;39812;52.430;16.936;2023-08-30T14:40:02;17.00;99.90
53904;DHT22;39812;52.430;16.936;2023-08-30T14:42:29;17.00;99.90
53904;DHT22;39812;52.430;16.936;2023-08-30T14:44:55;16.80;99.90
53904;DHT22;39812;52.430;16.936;2023-08-30T14:47:20;16.80;99.90
53904;DHT22;39812;52.430;16.936;2023-08-30T14:49:46;16.70;99.90
53904;DHT22;39812;52.430;16.936;2023-08-30T14:52:13;16.80;99.90
53904;DHT22;39812;52.430;16.936;2023-08-30T14:54:46;16.90;99.90
53904;DHT22;39812;52.430;16.936;2023-08-30T14:57:12;16.90;99.90
53904;DHT22;39812;52.430;16.936;2023-08-30T14:59:38;17.20;99.90
53904;DHT22;39812;52.430;16.936;2023-08-30T15:02:03;17.70;99.90
53904;DHT22;39812;52.430;16.936;2023-08-30T15:04:29;17.70;99.90
53904;DHT22;39812;52.430;16.936;2023-08-30T15:06:54;17.90;99.90
53904;DHT22;39812;52.430;16.936;2023-08-30T15:09:20;18.00;99.90
53904;DHT22;39812;52.430;16.936;2023-08-30T15:11:46;17.70;99.90
53904;DHT22;39812;52.430;16.936;2023-08-30T15:14:11;17.60;99.90
53904;DHT22;39812;52.430;16.936;2023-08-30T15:16:37;17.70;99.90
53904;DHT22;39812;52.430;16.936;2023-08-30T15:19:03;17.70;99.90
53904;DHT22;39812;52.430;16.936;2023-08-30T15:21:28;17.60;99.90
53904;DHT22;39812;52.430;16.936;2023-08-30T15:23:54;17.40;99.90